createdAt,value
2018-12-27T00:02:21.087Z,45.08
2018-12-27T00:04:49.448Z,45.06
2018-12-27T00:07:17.197Z,45.08
2018-12-27T00:09:45.406Z,45.15
2018-12-27T00:12:13.513Z,45.11
2018-12-27T00:14:41.243Z,45.20
2018-12-27T00:17:08.955Z,45.12
2018-12-27T00:19:36.687Z,44.99
2018-12-27T00:22:04.416Z,45.13
2018-12-27T00:24:32.139Z,45.13
2018-12-27T00:26:59.942Z,45.11
2018-12-27T00:29:27.676Z,45.11
2018-12-27T00:31:55.560Z,45.07
2018-12-27T00:34:23.530Z,45.09
2018-12-27T00:36:51.439Z,44.94
2018-12-27T00:39:20.671Z,44.99
2018-12-27T00:41:48.615Z,45.05
2018-12-27T00:44:16.804Z,44.99
2018-12-27T00:46:44.678Z,44.99
2018-12-27T00:49:12.578Z,44.98
2018-12-27T00:51:40.504Z,45.01
2018-12-27T00:54:08.430Z,45.05
2018-12-27T00:56:36.383Z,45.01
2018-12-27T00:59:04.319Z,45.07
2018-12-27T01:01:32.277Z,45.03
2018-12-27T01:04:00.147Z,44.93
2018-12-27T01:06:28.087Z,45.08
2018-12-27T01:08:56.038Z,45.06
2018-12-27T01:11:24.090Z,45.16
2018-12-27T01:13:52.162Z,45.23
2018-12-27T01:16:20.039Z,45.19
2018-12-27T01:18:47.916Z,45.17
2018-12-27T01:21:15.850Z,45.15
2018-12-27T01:23:43.850Z,45.14
2018-12-27T01:26:11.715Z,45.07
2018-12-27T01:28:39.622Z,45.04
2018-12-27T01:31:07.515Z,45.05
2018-12-27T01:33:35.417Z,44.97
2018-12-27T01:36:03.329Z,44.96
2018-12-27T01:38:31.210Z,44.94
2018-12-27T01:40:59.120Z,44.98
2018-12-27T01:43:28.401Z,44.96
2018-12-27T01:45:56.283Z,45.09
2018-12-27T01:48:24.156Z,45.01
2018-12-27T01:50:52.083Z,45.19
2018-12-27T01:53:19.984Z,44.95
2018-12-27T01:55:47.956Z,45.04
2018-12-27T01:58:15.860Z,45.00
2018-12-27T02:00:43.741Z,45.03
2018-12-27T02:03:11.693Z,45.09
2018-12-27T02:05:39.642Z,45.13
2018-12-27T02:08:07.561Z,45.20
2018-12-27T02:17:07.244Z,45.12
2018-12-27T02:19:35.218Z,45.06
2018-12-27T02:22:03.183Z,44.99
2018-12-27T02:24:31.093Z,45.02
2018-12-27T02:26:59.132Z,44.98
2018-12-27T02:29:27.111Z,45.00
2018-12-27T02:31:55.021Z,44.88
2018-12-27T02:34:22.920Z,44.91
2018-12-27T02:36:50.895Z,44.97
2018-12-27T02:39:18.904Z,44.89
2018-12-27T02:41:46.942Z,44.85
2018-12-27T02:44:15.400Z,44.85
2018-12-27T02:46:43.377Z,44.73
2018-12-27T02:49:11.343Z,44.74
2018-12-27T02:51:39.232Z,44.77
2018-12-27T02:54:07.171Z,44.94
2018-12-27T02:56:35.058Z,44.85
2018-12-27T02:59:02.956Z,45.02
2018-12-27T03:01:30.850Z,44.82
2018-12-27T03:03:59.066Z,44.82
2018-12-27T03:06:27.234Z,44.94
2018-12-27T03:08:55.121Z,44.91
2018-12-27T03:11:23.181Z,44.87
2018-12-27T03:13:51.191Z,44.91
2018-12-27T03:16:19.083Z,44.98
2018-12-27T03:18:46.959Z,44.98
2018-12-27T03:21:14.916Z,44.91
2018-12-27T03:23:42.835Z,44.88
2018-12-27T03:26:10.855Z,44.70
2018-12-27T03:28:39.082Z,44.68
2018-12-27T03:31:06.959Z,44.70
2018-12-27T03:33:35.097Z,44.76
2018-12-27T03:36:02.982Z,44.69
2018-12-27T03:38:30.940Z,44.71
2018-12-27T03:40:59.305Z,44.72
2018-12-27T03:43:27.233Z,44.79
2018-12-27T03:45:55.419Z,44.70
2018-12-27T03:48:23.322Z,44.84
2018-12-27T03:50:51.315Z,44.81
2018-12-27T03:53:19.218Z,44.72
2018-12-27T03:55:47.175Z,44.73
2018-12-27T03:58:15.078Z,44.86
2018-12-27T04:00:42.955Z,45.22
2018-12-27T04:03:10.845Z,45.13
2018-12-27T04:05:38.784Z,45.13
2018-12-27T04:08:06.686Z,44.96
2018-12-27T04:10:34.661Z,45.07
2018-12-27T04:13:02.570Z,44.93
2018-12-27T04:15:30.439Z,44.83
2018-12-27T04:17:58.459Z,44.93
2018-12-27T04:20:26.232Z,44.76
2018-12-27T04:22:54.498Z,44.81
2018-12-27T04:25:22.235Z,44.83
2018-12-27T04:27:49.967Z,44.93
2018-12-27T04:30:17.735Z,44.82
2018-12-27T04:32:45.508Z,44.68
2018-12-27T04:35:13.235Z,44.92
2018-12-27T04:37:40.975Z,44.75
2018-12-27T04:40:11.803Z,44.81
2018-12-27T04:42:39.606Z,44.68
2018-12-27T04:45:07.322Z,44.77
2018-12-27T04:47:35.059Z,44.88
2018-12-27T04:50:02.923Z,44.71
2018-12-27T04:52:30.796Z,44.64
2018-12-27T04:54:58.512Z,44.43
2018-12-27T04:57:26.568Z,44.46
2018-12-27T04:59:54.388Z,44.40
2018-12-27T05:02:22.091Z,44.35
2018-12-27T05:04:49.912Z,44.17
2018-12-27T05:07:17.660Z,44.28
2018-12-27T05:09:45.441Z,44.42
2018-12-27T05:12:13.174Z,44.35
2018-12-27T05:14:40.880Z,44.43
2018-12-27T05:17:08.863Z,44.42
2018-12-27T05:19:36.679Z,44.44
2018-12-27T05:22:04.482Z,44.42
2018-12-27T05:24:32.325Z,44.46
2018-12-27T05:27:00.063Z,44.48
2018-12-27T05:29:27.783Z,44.41
2018-12-27T05:31:55.627Z,44.49
2018-12-27T05:34:26.271Z,44.46
2018-12-27T05:36:53.072Z,44.50
2018-12-27T05:39:20.834Z,44.52
2018-12-27T05:41:48.787Z,44.45
2018-12-27T05:44:16.530Z,44.52
2018-12-27T05:46:44.246Z,44.59
2018-12-27T05:49:12.044Z,44.61
2018-12-27T05:51:39.759Z,44.56
2018-12-27T05:54:07.476Z,44.61
2018-12-27T05:56:35.182Z,44.80
2018-12-27T05:59:02.909Z,44.75
2018-12-27T06:01:30.707Z,44.69
2018-12-27T06:03:58.430Z,44.65
2018-12-27T06:06:26.187Z,44.59
2018-12-27T06:08:53.903Z,44.63
2018-12-27T06:11:21.703Z,44.53
2018-12-27T06:13:50.046Z,44.50
2018-12-27T06:16:17.975Z,44.46
2018-12-27T06:18:45.675Z,44.35
2018-12-27T06:21:14.012Z,44.41
2018-12-27T06:23:41.752Z,44.47
2018-12-27T06:26:09.635Z,44.46
2018-12-27T06:28:37.427Z,44.05
2018-12-27T06:31:05.158Z,44.40
2018-12-27T06:33:32.933Z,44.31
2018-12-27T06:36:00.687Z,43.32
2018-12-27T06:38:28.460Z,44.51
2018-12-27T06:40:56.174Z,44.92
2018-12-27T06:43:23.985Z,45.14
2018-12-27T06:45:51.931Z,44.60
2018-12-27T06:48:19.712Z,44.38
2018-12-27T06:50:47.409Z,44.46
2018-12-27T06:53:15.144Z,45.05
2018-12-27T06:55:43.196Z,45.17
2018-12-27T06:58:10.926Z,45.26
2018-12-27T07:00:38.643Z,45.52
2018-12-27T07:03:06.355Z,45.70
2018-12-27T07:05:34.186Z,45.65
2018-12-27T07:08:02.026Z,45.85
2018-12-27T07:10:29.829Z,46.01
2018-12-27T07:12:57.847Z,46.09
2018-12-27T07:15:25.642Z,46.20
2018-12-27T07:17:53.383Z,46.57
2018-12-27T07:20:21.108Z,46.37
2018-12-27T07:22:49.023Z,46.67
2018-12-27T07:25:16.883Z,46.53
2018-12-27T07:27:44.615Z,46.52
2018-12-27T07:30:12.337Z,46.72
2018-12-27T07:32:40.248Z,46.67
2018-12-27T07:35:08.020Z,46.64
2018-12-27T07:37:35.735Z,47.26
2018-12-27T07:40:04.155Z,46.55
2018-12-27T07:42:31.914Z,46.50
2018-12-27T07:44:59.636Z,45.61
2018-12-27T07:47:27.358Z,45.21
2018-12-27T07:49:55.161Z,44.85
2018-12-27T07:52:25.572Z,44.80
2018-12-27T07:54:52.803Z,44.79
2018-12-27T07:57:20.535Z,44.77
2018-12-27T07:59:48.276Z,44.85
2018-12-27T08:02:15.982Z,44.89
2018-12-27T08:04:43.719Z,44.92
2018-12-27T08:07:11.478Z,44.94
2018-12-27T08:09:39.327Z,44.94
2018-12-27T08:12:07.036Z,44.89
2018-12-27T08:14:34.796Z,44.89
2018-12-27T08:17:02.772Z,44.85
2018-12-27T08:19:30.607Z,44.85
2018-12-27T08:21:58.362Z,44.86
2018-12-27T08:24:26.096Z,44.86
2018-12-27T08:26:53.843Z,44.82
2018-12-27T08:29:21.910Z,44.85
2018-12-27T08:31:49.733Z,44.83
2018-12-27T08:34:17.534Z,44.84
2018-12-27T08:36:45.279Z,44.87
2018-12-27T08:39:12.975Z,44.82
2018-12-27T08:41:41.968Z,44.80
2018-12-27T08:44:09.675Z,44.77
2018-12-27T08:46:37.407Z,44.74
2018-12-27T08:49:05.109Z,44.78
2018-12-27T08:51:33.241Z,44.79
2018-12-27T08:54:01.030Z,44.72
2018-12-27T08:56:28.773Z,44.64
2018-12-27T08:58:56.573Z,44.79
2018-12-27T09:01:24.359Z,44.80
2018-12-27T09:03:52.119Z,44.79
2018-12-27T09:06:19.975Z,44.82
2018-12-27T09:08:47.708Z,44.84
2018-12-27T09:11:15.616Z,44.81
2018-12-27T09:13:43.434Z,44.84
2018-12-27T09:16:11.158Z,44.85
2018-12-27T09:18:38.887Z,44.96
2018-12-27T09:21:06.675Z,44.76
2018-12-27T09:23:34.406Z,44.94
2018-12-27T09:26:02.174Z,45.01
2018-12-27T09:28:29.884Z,44.96
2018-12-27T09:30:57.695Z,45.03
2018-12-27T09:33:25.425Z,45.02
2018-12-27T09:35:53.225Z,45.05
2018-12-27T09:38:20.944Z,44.68
2018-12-27T09:40:48.812Z,44.80
2018-12-27T09:43:16.551Z,44.57
2018-12-27T09:45:44.346Z,44.93
2018-12-27T09:48:12.089Z,45.00
2018-12-27T09:50:39.914Z,45.11
2018-12-27T09:53:07.778Z,45.13
2018-12-27T09:55:37.271Z,45.18
2018-12-27T09:58:05.403Z,45.18
2018-12-27T10:00:33.915Z,45.22
2018-12-27T10:03:01.731Z,45.25
2018-12-27T10:05:41.629Z,45.22
2018-12-27T10:08:11.104Z,45.23
2018-12-27T10:10:39.482Z,45.20
2018-12-27T10:13:10.494Z,45.24
2018-12-27T10:15:38.204Z,45.28
2018-12-27T10:18:06.104Z,45.35
2018-12-27T10:20:34.164Z,45.29
2018-12-27T10:23:02.152Z,45.31
2018-12-27T10:25:29.868Z,45.29
2018-12-27T10:27:57.646Z,45.25
2018-12-27T10:30:25.422Z,45.20
2018-12-27T10:32:53.147Z,45.23
2018-12-27T10:35:21.438Z,45.18
2018-12-27T10:37:49.208Z,45.16
2018-12-27T10:40:16.939Z,45.15
2018-12-27T10:42:44.711Z,45.08
2018-12-27T10:45:13.688Z,45.01
2018-12-27T10:47:41.386Z,44.99
2018-12-27T10:50:09.418Z,44.95
2018-12-27T10:52:37.470Z,44.93
2018-12-27T10:55:05.388Z,44.93
2018-12-27T10:57:34.862Z,44.93
2018-12-27T11:00:02.759Z,44.89
2018-12-27T11:02:30.480Z,44.90
2018-12-27T11:04:58.194Z,44.89
2018-12-27T11:07:25.964Z,44.91
2018-12-27T11:09:53.782Z,45.03
2018-12-27T11:12:21.788Z,44.99
2018-12-27T11:14:49.574Z,44.92
2018-12-27T11:17:17.280Z,44.99
2018-12-27T11:19:44.994Z,44.83
2018-12-27T11:22:12.764Z,44.89
2018-12-27T11:24:40.479Z,45.02
2018-12-27T11:27:09.490Z,44.85
2018-12-27T11:29:37.343Z,44.82
2018-12-27T11:32:05.163Z,44.81
2018-12-27T11:34:32.988Z,44.81
2018-12-27T11:37:00.747Z,44.88
2018-12-27T11:39:29.613Z,44.87
2018-12-27T11:41:57.331Z,44.95
2018-12-27T11:44:25.147Z,45.02
2018-12-27T11:46:52.894Z,45.07
2018-12-27T11:49:20.707Z,45.07
2018-12-27T11:51:48.430Z,45.00
2018-12-27T11:54:16.154Z,45.21
2018-12-27T11:56:43.890Z,45.16
2018-12-27T11:59:11.594Z,45.03
2018-12-27T12:01:39.331Z,45.02
2018-12-27T12:04:07.070Z,44.98
2018-12-27T12:06:36.636Z,44.99
2018-12-27T12:09:06.103Z,44.99
2018-12-27T12:11:34.119Z,45.01
2018-12-27T12:14:01.919Z,45.11
2018-12-27T12:16:29.627Z,45.12
2018-12-27T12:18:57.331Z,45.12
2018-12-27T12:21:25.075Z,45.11
2018-12-27T12:23:52.866Z,45.16
2018-12-27T12:26:20.590Z,45.10
2018-12-27T12:28:48.321Z,45.06
2018-12-27T12:31:16.051Z,45.08
2018-12-27T12:33:43.772Z,45.11
2018-12-27T12:36:11.774Z,45.07
2018-12-27T12:38:39.527Z,45.11
2018-12-27T12:41:08.578Z,45.05
2018-12-27T12:43:38.000Z,45.10
2018-12-27T12:46:05.711Z,45.06
2018-12-27T12:48:33.433Z,44.97
2018-12-27T12:51:01.151Z,45.04
2018-12-27T12:53:28.842Z,45.10
2018-12-27T12:55:56.563Z,45.00
2018-12-27T12:58:24.283Z,45.07
2018-12-27T13:00:51.990Z,45.02
2018-12-27T13:03:19.959Z,45.08
2018-12-27T13:05:47.684Z,45.03
2018-12-27T13:08:15.390Z,45.02
2018-12-27T13:10:43.111Z,45.04
2018-12-27T13:13:10.861Z,45.07
2018-12-27T13:15:38.611Z,45.00
2018-12-27T13:18:06.322Z,45.01
2018-12-27T13:20:34.288Z,44.95
2018-12-27T13:23:02.234Z,45.00
2018-12-27T13:25:30.015Z,44.92
2018-12-27T13:27:57.759Z,44.93
2018-12-27T13:30:25.507Z,44.96
2018-12-27T13:32:53.254Z,44.92
2018-12-27T13:35:20.949Z,44.92
2018-12-27T13:37:48.662Z,44.82
2018-12-27T13:40:16.392Z,44.74
2018-12-27T13:42:44.166Z,44.92
2018-12-27T13:45:11.882Z,44.81
2018-12-27T13:47:39.603Z,44.82
2018-12-27T13:50:07.358Z,44.80
2018-12-27T13:52:35.116Z,44.78
2018-12-27T13:55:02.835Z,44.83
2018-12-27T13:57:30.591Z,44.78
2018-12-27T13:59:58.321Z,44.70
2018-12-27T14:02:26.042Z,44.65
2018-12-27T14:04:56.121Z,44.67
2018-12-27T14:07:23.908Z,44.67
2018-12-27T14:09:51.638Z,44.68
2018-12-27T14:12:19.360Z,44.67
2018-12-27T14:14:50.100Z,44.63
2018-12-27T14:17:17.822Z,44.55
2018-12-27T14:19:45.532Z,44.60
2018-12-27T14:22:13.254Z,44.63
2018-12-27T14:24:41.032Z,44.64
2018-12-27T14:27:08.794Z,44.68
2018-12-27T14:29:36.806Z,44.74
2018-12-27T14:32:04.534Z,44.58
2018-12-27T14:34:32.555Z,44.63
2018-12-27T14:37:00.284Z,44.67
2018-12-27T14:39:28.119Z,44.63
2018-12-27T14:41:55.902Z,44.71
2018-12-27T14:44:23.635Z,44.69
2018-12-27T14:46:51.356Z,44.62
2018-12-27T14:49:19.167Z,44.67
2018-12-27T14:51:46.881Z,44.67
2018-12-27T14:54:14.610Z,44.67
2018-12-27T14:56:42.315Z,44.61
2018-12-27T14:59:10.155Z,44.59
2018-12-27T15:05:00.176Z,44.55
2018-12-27T15:07:27.929Z,44.62
2018-12-27T15:09:55.686Z,44.56
2018-12-27T15:12:23.404Z,44.58
2018-12-27T15:14:51.175Z,44.58
2018-12-27T15:17:18.903Z,44.62
2018-12-27T15:19:46.741Z,44.59
2018-12-27T15:22:14.434Z,44.54
2018-12-27T15:24:42.287Z,44.60
2018-12-27T15:27:10.039Z,44.60
2018-12-27T15:29:38.038Z,44.61
2018-12-27T15:32:05.839Z,44.53
2018-12-27T15:34:33.574Z,44.57
2018-12-27T15:37:01.270Z,44.55
2018-12-27T15:39:28.984Z,44.59
2018-12-27T15:41:56.728Z,44.53
2018-12-27T15:44:24.455Z,44.53
2018-12-27T15:46:52.239Z,44.48
2018-12-27T15:49:19.966Z,44.53
2018-12-27T15:51:47.691Z,44.51
2018-12-27T15:54:16.094Z,44.49
2018-12-27T15:56:43.810Z,44.50
2018-12-27T15:59:11.576Z,44.49
2018-12-27T16:01:39.302Z,44.48
2018-12-27T16:04:07.026Z,44.46
2018-12-27T16:06:34.870Z,44.52
2018-12-27T16:09:04.348Z,44.46
2018-12-27T16:11:32.047Z,44.47
2018-12-27T16:13:59.777Z,44.49
2018-12-27T16:16:27.582Z,44.47
2018-12-27T16:18:55.356Z,44.48
2018-12-27T16:21:23.378Z,44.45
2018-12-27T16:23:51.083Z,44.50
2018-12-27T16:26:18.829Z,44.48
2018-12-27T16:28:46.559Z,44.49
2018-12-27T16:31:14.390Z,44.48
2018-12-27T16:33:42.103Z,44.51
2018-12-27T16:36:09.892Z,44.46
2018-12-27T16:38:37.615Z,44.51
2018-12-27T16:41:05.613Z,44.49
2018-12-27T16:43:33.355Z,44.49
2018-12-27T16:46:01.078Z,44.50
2018-12-27T16:48:28.811Z,44.52
2018-12-27T16:50:56.595Z,44.50
2018-12-27T16:53:24.321Z,44.53
2018-12-27T16:55:52.099Z,44.50
2018-12-27T16:58:19.822Z,44.48
2018-12-27T17:00:47.986Z,44.50
2018-12-27T17:03:15.727Z,44.47
2018-12-27T17:05:43.503Z,44.53
2018-12-27T17:08:11.306Z,44.50
2018-12-27T17:10:39.332Z,44.54
2018-12-27T17:13:07.228Z,44.54
2018-12-27T17:15:35.019Z,44.54
2018-12-27T17:18:02.812Z,44.53
2018-12-27T17:20:30.635Z,44.55
2018-12-27T17:22:58.450Z,44.48
2018-12-27T17:25:26.183Z,44.50
2018-12-27T17:27:53.933Z,44.53
2018-12-27T17:30:23.228Z,44.51
2018-12-27T17:32:50.940Z,44.51
2018-12-27T17:35:18.691Z,44.49
2018-12-27T17:37:46.442Z,44.51
2018-12-27T17:40:14.239Z,44.52
2018-12-27T17:42:41.966Z,44.52
2018-12-27T17:45:10.672Z,44.54
2018-12-27T17:47:38.416Z,44.53
2018-12-27T17:50:06.234Z,44.56
2018-12-27T17:52:33.954Z,44.49
2018-12-27T17:55:01.746Z,44.52
2018-12-27T17:57:29.474Z,44.50
2018-12-27T17:59:57.220Z,44.50
2018-12-27T18:02:25.036Z,44.48
2018-12-27T18:04:52.748Z,44.53
2018-12-27T18:07:20.483Z,44.50
2018-12-27T18:09:48.327Z,44.49
2018-12-27T18:12:16.086Z,44.53
2018-12-27T18:14:43.837Z,44.59
2018-12-27T18:17:11.556Z,44.60
2018-12-27T18:19:39.381Z,44.67
2018-12-27T18:22:07.197Z,44.68
2018-12-27T18:24:34.889Z,44.67
2018-12-27T18:27:02.743Z,44.75
2018-12-27T18:29:30.521Z,44.69
2018-12-27T18:31:58.385Z,44.76
2018-12-27T18:34:26.105Z,44.65
2018-12-27T18:36:53.853Z,44.55
2018-12-27T18:39:21.634Z,44.61
2018-12-27T18:41:49.392Z,44.65
2018-12-27T18:44:17.086Z,44.69
2018-12-27T18:46:45.535Z,44.71
2018-12-27T18:49:13.393Z,44.69
2018-12-27T18:51:41.348Z,44.59
2018-12-27T18:54:33.378Z,44.56
2018-12-27T18:57:01.150Z,44.55
2018-12-27T18:59:28.910Z,44.54
2018-12-27T19:01:56.677Z,44.54
2018-12-27T19:04:24.416Z,44.55
2018-12-27T19:06:52.707Z,44.55
2018-12-27T19:09:20.665Z,44.55
2018-12-27T19:12:06.872Z,44.56
2018-12-27T19:14:35.450Z,44.54
2018-12-27T19:17:07.755Z,44.52
2018-12-27T19:19:32.967Z,44.53
2018-12-27T19:22:03.548Z,44.50
2018-12-27T19:24:31.687Z,44.50
2018-12-27T19:27:00.236Z,44.53
2018-12-27T19:29:28.482Z,44.52
2018-12-27T19:31:56.553Z,44.51
2018-12-27T19:34:24.923Z,44.51
2018-12-27T19:36:55.649Z,44.50
2018-12-27T19:39:25.853Z,44.48
2018-12-27T19:41:53.537Z,44.49
2018-12-27T19:44:21.932Z,44.48
2018-12-27T19:46:50.290Z,44.51
2018-12-27T19:49:18.705Z,44.49
2018-12-27T19:51:46.897Z,44.48
2018-12-27T19:54:15.227Z,44.47
2018-12-27T19:56:49.219Z,44.49
2018-12-27T19:59:20.175Z,44.48
2018-12-27T20:01:48.279Z,44.46
2018-12-27T20:04:16.438Z,44.45
2018-12-27T20:06:45.172Z,44.46
2018-12-27T20:09:13.364Z,44.46
2018-12-27T20:11:43.840Z,44.45
2018-12-27T20:14:11.907Z,44.43
2018-12-27T20:16:41.025Z,44.43
2018-12-27T20:19:08.990Z,44.45
2018-12-27T20:21:40.126Z,44.45
2018-12-27T20:24:08.141Z,44.47
2018-12-27T20:26:42.355Z,44.43
2018-12-27T20:29:11.739Z,44.47
2018-12-27T20:31:40.056Z,44.44
2018-12-27T20:34:08.158Z,44.43
2018-12-27T20:36:36.478Z,44.44
2018-12-27T20:39:07.254Z,44.45
2018-12-27T20:41:39.996Z,44.45
2018-12-27T20:44:10.569Z,44.49
2018-12-27T20:46:41.305Z,44.49
2018-12-27T20:49:09.888Z,44.56
2018-12-27T20:51:37.997Z,44.58
2018-12-27T20:54:06.112Z,44.53
2018-12-27T20:56:34.302Z,44.54
2018-12-27T20:59:04.926Z,44.51
2018-12-27T21:01:37.296Z,44.57
2018-12-27T21:04:05.023Z,44.69
2018-12-27T21:06:33.780Z,44.50
2018-12-27T21:09:01.763Z,44.42
2018-12-27T21:11:29.476Z,44.39
2018-12-27T21:13:57.392Z,44.31
2018-12-27T21:16:25.253Z,44.24
2018-12-27T21:18:53.322Z,44.19
2018-12-27T21:21:21.207Z,44.14
2018-12-27T21:23:49.995Z,44.07
2018-12-27T21:26:17.830Z,44.07
2018-12-27T21:28:45.597Z,44.04
2018-12-27T21:31:13.471Z,44.03
2018-12-27T21:33:41.231Z,44.01
2018-12-27T21:36:09.010Z,43.97
2018-12-27T21:38:41.607Z,43.88
2018-12-27T21:41:07.702Z,43.79
2018-12-27T21:43:35.455Z,43.84
2018-12-27T21:46:03.427Z,44.07
2018-12-27T21:48:31.146Z,44.62
2018-12-27T21:50:59.142Z,43.99
2018-12-27T21:53:26.934Z,44.47
2018-12-27T21:55:54.938Z,44.13
2018-12-27T21:58:22.693Z,44.48
2018-12-27T22:00:50.410Z,44.61
2018-12-27T22:03:18.150Z,44.70
2018-12-27T22:05:46.135Z,44.69
2018-12-27T22:08:13.946Z,44.49
2018-12-27T22:10:41.986Z,44.56
2018-12-27T22:13:09.795Z,44.64
2018-12-27T22:15:37.955Z,44.69
2018-12-27T22:18:05.683Z,44.61
2018-12-27T22:20:33.419Z,44.61
2018-12-27T22:23:01.160Z,44.77
2018-12-27T22:25:29.135Z,44.34
2018-12-27T22:27:57.942Z,44.36
2018-12-27T22:30:25.831Z,44.35
2018-12-27T22:32:53.643Z,44.35
2018-12-27T22:35:21.459Z,44.41
2018-12-27T22:37:49.286Z,44.56
2018-12-27T22:40:17.068Z,44.58
2018-12-27T22:42:44.842Z,44.69
2018-12-27T22:45:12.541Z,44.67
2018-12-27T22:47:40.263Z,44.53
2018-12-27T22:50:08.368Z,44.52
2018-12-27T22:52:36.074Z,44.52
2018-12-27T22:55:03.959Z,44.61
2018-12-27T22:57:31.687Z,44.57
2018-12-27T22:59:59.422Z,44.44
2018-12-27T23:02:27.236Z,44.59
2018-12-27T23:04:54.983Z,44.56
2018-12-27T23:07:25.150Z,44.52
2018-12-27T23:09:52.272Z,44.56
2018-12-27T23:12:20.004Z,44.47
2018-12-27T23:14:47.719Z,44.56
2018-12-27T23:17:15.451Z,44.48
2018-12-27T23:19:43.168Z,44.48
2018-12-27T23:22:10.879Z,44.52
2018-12-27T23:24:38.590Z,44.50
2018-12-27T23:27:06.643Z,44.48
2018-12-27T23:29:34.366Z,44.42
2018-12-27T23:32:02.095Z,44.56
2018-12-27T23:34:29.802Z,44.39
2018-12-27T23:36:57.675Z,44.40
2018-12-27T23:39:25.378Z,44.43
2018-12-27T23:41:53.106Z,44.48
2018-12-27T23:44:20.844Z,44.47
2018-12-27T23:46:48.583Z,44.48
2018-12-27T23:49:16.326Z,44.50
2018-12-27T23:51:45.539Z,44.52
2018-12-27T23:54:13.243Z,44.55
2018-12-27T23:56:40.968Z,44.47
2018-12-27T23:59:08.705Z,44.52
